Погода Кардаменана неделю

Южные Эгейские острова, Греция

31 августа-06 сентября
  • 31августа
    Сегодня
    +23°
    +31°
    Ясно и безоблачно
    ВремяПогодаТемператураВлажностьДавлениеВетер, м/сВероятность осадков
    00:00Ясно и безоблачно+25°C74 %758 мм7.9 м/с2 %
    03:00Ясно и безоблачно+24°C71 %758 мм6.2 м/с2 %
    06:00Ясно и безоблачно+24°C74 %758 мм5.8 м/с2 %
    09:00Ясно и безоблачно+26°C69 %758 мм6.9 м/с2 %
    12:00Ясно и безоблачно+29°C60 %758 мм7.8 м/с2 %
    15:00Ясно и безоблачно+31°C54 %758 мм8.1 м/с2 %
    18:00Ясно и безоблачно+29°C61 %757 мм8.3 м/с2 %
    21:00Ясно и безоблачно+26°C68 %757 мм7.9 м/с2 %
  • 01сентября
    Вторник
    +23°
    +32°
    Ясно и безоблачно
    ВремяПогодаТемператураВлажностьДавлениеВетер, м/сВероятность осадков
    00:00Ясно и безоблачно+25°C75 %757 мм6.0 м/с2 %
    03:00Ясно и безоблачно+24°C80 %757 мм3.3 м/с2 %
    06:00Ясно и безоблачно+24°C84 %757 мм3.4 м/с2 %
    09:00Ясно и безоблачно+26°C70 %758 мм3.4 м/с2 %
    12:00Ясно и безоблачно+30°C61 %758 мм2.9 м/с2 %
    15:00Ясно и безоблачно+31°C58 %758 мм4.1 м/с2 %
    18:00Ясно и безоблачно+29°C66 %758 мм5.0 м/с2 %
    21:00Ясно и безоблачно+25°C75 %758 мм4.4 м/с2 %
  • 02сентября
    Среда
    +23°
    +32°
    Ясно и безоблачно
    ВремяПогодаТемператураВлажностьДавлениеВетер, м/сВероятность осадков
    00:00Ясно и безоблачно+25°C79 %758 мм2.5 м/с2 %
    03:00Ясно и безоблачно+24°C83 %758 мм1.8 м/с2 %
    06:00Ясно и безоблачно+24°C85 %758 мм2.4 м/с2 %
    09:00Ясно и безоблачно+27°C67 %758 мм4.2 м/с2 %
    12:00Ясно и безоблачно+31°C57 %759 мм3.9 м/с2 %
    15:00Ясно и безоблачно+31°C58 %758 мм4.7 м/с2 %
    18:00Ясно и безоблачно+29°C64 %757 мм5.8 м/с2 %
    21:00Ясно и безоблачно+26°C74 %757 мм4.6 м/с2 %
  • 03сентября
    Четверг
    +23°
    +31°
    Ясно и безоблачно
    ВремяПогодаТемператураВлажностьДавлениеВетер, м/сВероятность осадков
    00:00Ясно и безоблачно+25°C76 %757 мм3.3 м/с2 %
    03:00Ясно и безоблачно+24°C79 %756 мм2.6 м/с2 %
    06:00Ясно и безоблачно+24°C83 %756 мм3.0 м/с2 %
    09:00Ясно и безоблачно+27°C69 %756 мм3.8 м/с2 %
    12:00Ясно и безоблачно+30°C59 %757 мм3.5 м/с2 %
    15:00Ясно и безоблачно+30°C58 %756 мм6.4 м/с2 %
    18:00Ясно и безоблачно+28°C62 %755 мм6.1 м/с2 %
    21:00Ясно и безоблачно+25°C77 %756 мм5.4 м/с2 %
  • 04сентября
    Пятница
    +23°
    +30°
    Ясно и безоблачно
    ВремяПогодаТемператураВлажностьДавлениеВетер, м/сВероятность осадков
    00:00Ясно и безоблачно+25°C76 %755 мм5.9 м/с2 %
    03:00Ясно и безоблачно+24°C73 %755 мм6.6 м/с2 %
    06:00Ясно и безоблачно+24°C75 %754 мм6.9 м/с2 %
    09:00Ясно и безоблачно+25°C72 %755 мм7.7 м/с2 %
    12:00Ясно и безоблачно+28°C64 %756 мм8.4 м/с2 %
    15:00Ясно и безоблачно+29°C62 %755 мм10.1 м/с2 %
    18:00Ясно и безоблачно+28°C69 %755 мм11.2 м/с2 %
    21:00Ясно и безоблачно+25°C68 %756 мм10.8 м/с2 %
  • 05сентября
    Суббота
    +24°
    +31°
    Ясно и безоблачно
    ВремяПогодаТемператураВлажностьДавлениеВетер, м/сВероятность осадков
    03:00Ясно и безоблачно+24°C71 %756 мм11.2 м/с2 %
    09:00Ясно и безоблачно+26°C68 %758 мм10.7 м/с2 %
    15:00Ясно и безоблачно+30°C56 %759 мм11.0 м/с2 %
    21:00Ясно и безоблачно+25°C69 %760 мм8.0 м/с2 %
  • 06сентября
    Воскресенье
    +24°
    +29°
    Ясно и безоблачно
    ВремяПогодаТемператураВлажностьДавлениеВетер, м/сВероятность осадков
    03:00Ясно и безоблачно+25°C63 %760 мм8.5 м/с2 %
    09:00Ясно и безоблачно+25°C68 %761 мм7.2 м/с2 %
    15:00Ясно и безоблачно+29°C60 %761 мм7.8 м/с2 %
    21:00Ясно и безоблачно+26°C61 %760 мм8.6 м/с2 %
Мы используем cookies
Соглашаюсь